メインページ
METAR-TAF:

METAR-TAF

空港 :

エルサルバドル, エルサルバドル

エルサルバドル国際空港

緯度: 13-26N, 経度: 089-03W, 海抜: 25m

現時点の気象観測

当レポートは40分前の15:50(UTC)に作成
変向風 2kt
気温 30°C
湿度 62%
気圧 1013 hPa
視程10km以上
高度3300ftの雲はほとんどない

METAR: MSLP 221550Z VRB02KT 9999 FEW033 30/22 Q1013 A2991 NOSIG

時間: 10:30 (16:30 UTC)

予報

当レポートは7時間5分前の09:25(UTC)に作成
予報は22日の 12時(UTC)から 23日の 12時(UTC)まで有効
北/北東の風 10kt
視程10km以上
高度4300ftの雲はほとんどない
22日の 1900時(UTC)から
南/南西の風 8kt
視程10km以上
高度6000ftの雲はほとんどない
23日の 0100時(UTC)から
北/北東の風 6kt
視程10km以上
1,500メートル以下は雲なし、積乱雲なし

TAF: MSLP 220925Z 2212/2312 03010KT 9999 FEW043 TX31/2218Z TN21/2310Z FM221900 21008KT 9999 FEW060 FM230100 02006KT CAVOK

4,000以上の空港の気象観測と天気予報(METAR報とTAF報)

利用可能な観測所は地図上に黄色い丸と赤い丸で示す。

丸の上にカーソルを重ねると観測所名を参照できる。

次にクリックすると気象観測と天気予報を参照できる。

マップの切り替え:黒色「×」印の緑ボタンをクリックして拡大、「-」印の緑ボタンをクリックして縮小、緑色の三角印をクリックして隣りの地図に切り替え


METAR-TAF: